sensor_id;sensor_type;location;lat;lon;timestamp;P1;durP1;ratioP1;P2;durP2;ratioP2
11917;SDS011;6019;51.768;5.870;2023-02-28T07:36:08;4.2;;;681.4;;
11917;SDS011;6019;51.768;5.870;2023-02-28T07:38:37;3.2;;;577.0;;
11917;SDS011;6019;51.768;5.870;2023-02-28T07:41:07;4.0;;;540.1666666666666;;
11917;SDS011;6019;51.768;5.870;2023-02-28T07:43:37;4.8;;;426.57142857142856;;
11917;SDS011;6019;51.768;5.870;2023-02-28T07:46:08;4.2;;;432.46666666666664;;
11917;SDS011;6019;51.768;5.870;2023-02-28T07:48:37;3.8;;;440.8666666666667;;
11917;SDS011;6019;51.768;5.870;2023-02-28T07:51:07;3.4;;;442.1333333333333;;
11917;SDS011;6019;51.768;5.870;2023-02-28T07:53:37;4.2;;;445.06666666666666;;
11917;SDS011;6019;51.768;5.870;2023-02-28T07:56:07;4.0;;;444.8666666666667;;
11917;SDS011;6019;51.768;5.870;2023-02-28T07:58:37;3.8;;;435.53333333333336;;
11917;SDS011;6019;51.768;5.870;2023-02-28T08:01:07;4.2;;;428.4;;
11917;SDS011;6019;51.768;5.870;2023-02-28T08:03:37;4.0;;;426.6;;
11917;SDS011;6019;51.768;5.870;2023-02-28T08:06:07;4.2;;;428.1333333333333;;
11917;SDS011;6019;51.768;5.870;2023-02-28T08:08:37;3.4;;;432.6666666666667;;
11917;SDS011;6019;51.768;5.870;2023-02-28T08:11:07;4.0;;;415.3333333333333;;
11917;SDS011;6019;51.768;5.870;2023-02-28T08:13:37;3.6;;;403.1333333333333;;
11917;SDS011;6019;51.768;5.870;2023-02-28T08:16:07;3.0;;;390.6;;
11917;SDS011;6019;51.768;5.870;2023-02-28T08:18:37;3.2;;;374.8;;
11917;SDS011;6019;51.768;5.870;2023-02-28T08:21:07;3.2;;;355.73333333333335;;
11917;SDS011;6019;51.768;5.870;2023-02-28T08:23:37;3.8;;;355.46666666666664;;
11917;SDS011;6019;51.768;5.870;2023-02-28T08:26:07;3.6;;;370.2;;
11917;SDS011;6019;51.768;5.870;2023-02-28T08:28:37;3.4;;;372.0;;
11917;SDS011;6019;51.768;5.870;2023-02-28T08:31:08;3.0;;;382.26666666666665;;
11917;SDS011;6019;51.768;5.870;2023-02-28T08:33:37;3.0;;;389.4;;
11917;SDS011;6019;51.768;5.870;2023-02-28T08:36:08;3.2;;;379.3333333333333;;
11917;SDS011;6019;51.768;5.870;2023-02-28T08:38:37;3.0;;;351.93333333333334;;
11917;SDS011;6019;51.768;5.870;2023-02-28T08:41:07;3.0;;;330.8;;
11917;SDS011;6019;51.768;5.870;2023-02-28T08:43:37;3.0;;;312.46666666666664;;
11917;SDS011;6019;51.768;5.870;2023-02-28T08:46:07;3.0;;;297.46666666666664;;
11917;SDS011;6019;51.768;5.870;2023-02-28T08:48:37;3.2;;;281.6;;
11917;SDS011;6019;51.768;5.870;2023-02-28T08:51:08;3.0;;;271.2;;
11917;SDS011;6019;51.768;5.870;2023-02-28T08:53:38;3.0;;;273.4;;
11917;SDS011;6019;51.768;5.870;2023-02-28T08:56:08;3.0;;;265.3333333333333;;
11917;SDS011;6019;51.768;5.870;2023-02-28T08:58:37;3.0;;;260.93333333333334;;
11917;SDS011;6019;51.768;5.870;2023-02-28T09:01:08;3.2;;;252.46666666666667;;
11917;SDS011;6019;51.768;5.870;2023-02-28T09:03:37;3.0;;;249.66666666666666;;
11917;SDS011;6019;51.768;5.870;2023-02-28T09:06:08;3.0;;;245.93333333333334;;
11917;SDS011;6019;51.768;5.870;2023-02-28T09:08:37;3.0;;;252.86666666666667;;
11917;SDS011;6019;51.768;5.870;2023-02-28T09:11:07;3.0;;;256.4;;
11917;SDS011;6019;51.768;5.870;2023-02-28T09:13:38;3.6;;;253.46666666666667;;
11917;SDS011;6019;51.768;5.870;2023-02-28T09:16:08;3.2;;;254.8;;
11917;SDS011;6019;51.768;5.870;2023-02-28T09:18:37;3.2;;;261.93333333333334;;
11917;SDS011;6019;51.768;5.870;2023-02-28T09:21:08;3.6;;;266.46666666666664;;
11917;SDS011;6019;51.768;5.870;2023-02-28T09:23:37;4.0;;;275.8666666666667;;
11917;SDS011;6019;51.768;5.870;2023-02-28T09:26:06;4.2;;;274.6;;
11917;SDS011;6019;51.768;5.870;2023-02-28T09:28:37;4.2;;;274.93333333333334;;
11917;SDS011;6019;51.768;5.870;2023-02-28T09:31:10;4.6;;;292.06666666666666;;
11917;SDS011;6019;51.768;5.870;2023-02-28T09:33:37;4.8;;;311.3333333333333;;
11917;SDS011;6019;51.768;5.870;2023-02-28T09:36:07;4.0;;;313.0;;
11917;SDS011;6019;51.768;5.870;2023-02-28T09:38:37;4.4;;;316.26666666666665;;
11917;SDS011;6019;51.768;5.870;2023-02-28T09:41:10;5.4;;;307.6666666666667;;
11917;SDS011;6019;51.768;5.870;2023-02-28T09:43:39;5.8;;;298.8666666666667;;
11917;SDS011;6019;51.768;5.870;2023-02-28T09:46:08;7.2;;;285.8666666666667;;
11917;SDS011;6019;51.768;5.870;2023-02-28T09:48:39;6.333333333333333;;;289.1333333333333;;
11917;SDS011;6019;51.768;5.870;2023-02-28T09:51:11;-1;;;292.26666666666665;;
11917;SDS011;6019;51.768;5.870;2023-02-28T09:53:37;-1;;;286.8;;
11917;SDS011;6019;51.768;5.870;2023-02-28T10:01:21;15.666666666666666;;;81.5;;
11917;SDS011;6019;51.768;5.870;2023-02-28T10:03:39;6.8;;;111.53333333333333;;
11917;SDS011;6019;51.768;5.870;2023-02-28T10:06:10;4.2;;;172.46666666666667;;
11917;SDS011;6019;51.768;5.870;2023-02-28T10:08:39;2.4;;;234.26666666666668;;
11917;SDS011;6019;51.768;5.870;2023-02-28T10:11:07;1.4;;;287.2;;
11917;SDS011;6019;51.768;5.870;2023-02-28T10:13:39;0.4;;;321.4;;
11917;SDS011;6019;51.768;5.870;2023-02-28T10:16:08;0.0;;;312.0;;
11917;SDS011;6019;51.768;5.870;2023-02-28T10:18:39;0.0;;;276.3333333333333;;
11917;SDS011;6019;51.768;5.870;2023-02-28T10:51:24;0.0;;;311.26666666666665;;
11917;SDS011;6019;51.768;5.870;2023-02-28T10:53:54;0.0;;;304.2;;
11917;SDS011;6019;51.768;5.870;2023-02-28T10:56:24;0.0;;;315.6;;
11917;SDS011;6019;51.768;5.870;2023-02-28T10:58:54;0.0;;;318.8666666666667;;
11917;SDS011;6019;51.768;5.870;2023-02-28T11:01:27;0.0;;;326.2;;
11917;SDS011;6019;51.768;5.870;2023-02-28T11:03:54;4.2;;;318.8;;
11917;SDS011;6019;51.768;5.870;2023-02-28T11:06:25;0.0;;;310.0;;
11917;SDS011;6019;51.768;5.870;2023-02-28T11:08:56;0.4;;;301.0;;
11917;SDS011;6019;51.768;5.870;2023-02-28T11:11:25;0.0;;;295.53333333333336;;
11917;SDS011;6019;51.768;5.870;2023-02-28T11:13:55;0.0;;;299.0;;
11917;SDS011;6019;51.768;5.870;2023-02-28T11:16:31;2.2;;;307.53333333333336;;
11917;SDS011;6019;51.768;5.870;2023-02-28T11:18:54;0.0;;;304.4;;
11917;SDS011;6019;51.768;5.870;2023-02-28T11:21:24;0.6;;;304.1333333333333;;
11917;SDS011;6019;51.768;5.870;2023-02-28T11:23:56;0.8;;;300.93333333333334;;
11917;SDS011;6019;51.768;5.870;2023-02-28T11:26:35;1.0;;;300.26666666666665;;
11917;SDS011;6019;51.768;5.870;2023-02-28T11:29:02;1.0;;;294.4;;
11917;SDS011;6019;51.768;5.870;2023-02-28T11:31:24;1.0;;;288.46666666666664;;
11917;SDS011;6019;51.768;5.870;2023-02-28T11:33:54;1.4;;;279.8;;
11917;SDS011;6019;51.768;5.870;2023-02-28T11:36:25;2.0;;;281.6666666666667;;
11917;SDS011;6019;51.768;5.870;2023-02-28T11:38:55;2.0;;;280.1333333333333;;
11917;SDS011;6019;51.768;5.870;2023-02-28T11:41:28;2.0;;;277.4;;
11917;SDS011;6019;51.768;5.870;2023-02-28T11:44:00;2.0;;;265.6;;
11917;SDS011;6019;51.768;5.870;2023-02-28T11:46:25;2.2;;;249.2;;
11917;SDS011;6019;51.768;5.870;2023-02-28T11:48:56;2.8;;;256.6666666666667;;
11917;SDS011;6019;51.768;5.870;2023-02-28T11:51:26;2.0;;;263.1333333333333;;
11917;SDS011;6019;51.768;5.870;2023-02-28T11:53:58;2.4;;;261.2;;
11917;SDS011;6019;51.768;5.870;2023-02-28T11:56:25;3.0;;;252.8;;
11917;SDS011;6019;51.768;5.870;2023-02-28T11:58:55;3.0;;;246.2;;
11917;SDS011;6019;51.768;5.870;2023-02-28T12:01:28;2.8;;;249.0;;
11917;SDS011;6019;51.768;5.870;2023-02-28T12:03:58;2.8;;;246.4;;
11917;SDS011;6019;51.768;5.870;2023-02-28T12:06:25;3.0;;;235.2;;
11917;SDS011;6019;51.768;5.870;2023-02-28T12:08:59;2.4;;;236.93333333333334;;
11917;SDS011;6019;51.768;5.870;2023-02-28T12:11:28;2.2;;;251.33333333333334;;
11917;SDS011;6019;51.768;5.870;2023-02-28T12:13:57;2.6;;;238.53333333333333;;
11917;SDS011;6019;51.768;5.870;2023-02-28T12:16:30;2.6;;;215.26666666666668;;
11917;SDS011;6019;51.768;5.870;2023-02-28T12:18:58;3.0;;;198.06666666666666;;
11917;SDS011;6019;51.768;5.870;2023-02-28T12:21:26;3.4;;;196.4;;
11917;SDS011;6019;51.768;5.870;2023-02-28T12:23:57;4.0;;;184.0;;
11917;SDS011;6019;51.768;5.870;2023-02-28T12:26:26;4.0;;;173.06666666666666;;
11917;SDS011;6019;51.768;5.870;2023-02-28T12:28:57;3.0;;;181.33333333333334;;
11917;SDS011;6019;51.768;5.870;2023-02-28T12:31:25;3.8;;;176.93333333333334;;
11917;SDS011;6019;51.768;5.870;2023-02-28T12:33:55;3.0;;;184.0;;
11917;SDS011;6019;51.768;5.870;2023-02-28T12:36:24;3.6;;;189.66666666666666;;
11917;SDS011;6019;51.768;5.870;2023-02-28T12:38:55;3.6;;;176.93333333333334;;
11917;SDS011;6019;51.768;5.870;2023-02-28T12:41:27;4.6;;;159.06666666666666;;
11917;SDS011;6019;51.768;5.870;2023-02-28T12:43:55;5.0;;;143.93333333333334;;
11917;SDS011;6019;51.768;5.870;2023-02-28T12:46:25;5.8;;;139.4;;
11917;SDS011;6019;51.768;5.870;2023-02-28T12:48:56;6.6;;;145.8;;
11917;SDS011;6019;51.768;5.870;2023-02-28T12:51:24;6.2;;;140.6;;
11917;SDS011;6019;51.768;5.870;2023-02-28T12:53:57;7.0;;;139.66666666666666;;
11917;SDS011;6019;51.768;5.870;2023-02-28T12:56:29;7.0;;;133.93333333333334;;
11917;SDS011;6019;51.768;5.870;2023-02-28T12:58:54;7.8;;;138.13333333333333;;
11917;SDS011;6019;51.768;5.870;2023-02-28T13:01:33;8.0;;;135.26666666666668;;
11917;SDS011;6019;51.768;5.870;2023-02-28T13:04:31;8.0;;;133.66666666666666;;
11917;SDS011;6019;51.768;5.870;2023-02-28T13:06:29;8.2;;;142.6;;
11917;SDS011;6019;51.768;5.870;2023-02-28T13:08:59;8.4;;;138.4;;
11917;SDS011;6019;51.768;5.870;2023-02-28T13:11:25;8.2;;;125.73333333333333;;
11917;SDS011;6019;51.768;5.870;2023-02-28T13:13:57;8.6;;;116.6;;
11917;SDS011;6019;51.768;5.870;2023-02-28T13:16:24;9.0;;;111.0;;
11917;SDS011;6019;51.768;5.870;2023-02-28T13:18:57;10.2;;;116.26666666666667;;
11917;SDS011;6019;51.768;5.870;2023-02-28T13:21:26;11.4;;;114.06666666666666;;
11917;SDS011;6019;51.768;5.870;2023-02-28T13:23:58;11.6;;;108.46666666666667;;
11917;SDS011;6019;51.768;5.870;2023-02-28T13:27:10;12.2;;;113.73333333333333;;
11917;SDS011;6019;51.768;5.870;2023-02-28T13:28:57;11.4;;;117.46666666666667;;
11917;SDS011;6019;51.768;5.870;2023-02-28T13:31:24;11.0;;;118.86666666666666;;
11917;SDS011;6019;51.768;5.870;2023-02-28T13:34:26;9.8;;;117.86666666666666;;
11917;SDS011;6019;51.768;5.870;2023-02-28T13:36:26;11.6;;;110.66666666666667;;
11917;SDS011;6019;51.768;5.870;2023-02-28T13:38:54;12.0;;;103.4;;
11917;SDS011;6019;51.768;5.870;2023-02-28T13:41:40;12.2;;;108.46666666666667;;
11917;SDS011;6019;51.768;5.870;2023-02-28T13:44:03;12.8;;;109.2;;
11917;SDS011;6019;51.768;5.870;2023-02-28T13:46:24;12.0;;;114.33333333333333;;
11917;SDS011;6019;51.768;5.870;2023-02-28T13:48:54;12.6;;;115.26666666666667;;
11917;SDS011;6019;51.768;5.870;2023-02-28T13:51:40;13.4;;;117.4;;
11917;SDS011;6019;51.768;5.870;2023-02-28T13:53:57;15.6;;;111.66666666666667;;
11917;SDS011;6019;51.768;5.870;2023-02-28T13:56:27;13.8;;;109.93333333333334;;
11917;SDS011;6019;51.768;5.870;2023-02-28T13:58:55;13.4;;;112.73333333333333;;
11917;SDS011;6019;51.768;5.870;2023-02-28T14:01:31;15.6;;;115.6;;
11917;SDS011;6019;51.768;5.870;2023-02-28T14:03:58;12.8;;;118.0;;
11917;SDS011;6019;51.768;5.870;2023-02-28T14:06:25;12.4;;;116.53333333333333;;
11917;SDS011;6019;51.768;5.870;2023-02-28T14:08:56;13.0;;;104.86666666666666;;
11917;SDS011;6019;51.768;5.870;2023-02-28T14:11:26;13.4;;;103.53333333333333;;
11917;SDS011;6019;51.768;5.870;2023-02-28T14:13:54;13.4;;;98.66666666666667;;
11917;SDS011;6019;51.768;5.870;2023-02-28T14:16:25;13.0;;;97.0;;
11917;SDS011;6019;51.768;5.870;2023-02-28T14:18:56;13.0;;;99.13333333333334;;
11917;SDS011;6019;51.768;5.870;2023-02-28T14:21:24;13.0;;;109.06666666666666;;
11917;SDS011;6019;51.768;5.870;2023-02-28T14:24:06;13.0;;;111.2;;
11917;SDS011;6019;51.768;5.870;2023-02-28T14:26:28;13.0;;;106.6;;
11917;SDS011;6019;51.768;5.870;2023-02-28T14:28:59;13.2;;;111.53333333333333;;
11917;SDS011;6019;51.768;5.870;2023-02-28T14:31:24;13.2;;;109.26666666666667;;
11917;SDS011;6019;51.768;5.870;2023-02-28T14:33:59;13.0;;;105.73333333333333;;
11917;SDS011;6019;51.768;5.870;2023-02-28T14:36:26;12.0;;;107.6;;
11917;SDS011;6019;51.768;5.870;2023-02-28T14:38:55;12.2;;;119.0;;
11917;SDS011;6019;51.768;5.870;2023-02-28T14:41:28;12.6;;;114.8;;
11917;SDS011;6019;51.768;5.870;2023-02-28T14:43:56;13.2;;;119.2;;
11917;SDS011;6019;51.768;5.870;2023-02-28T14:46:26;12.0;;;111.8;;
11917;SDS011;6019;51.768;5.870;2023-02-28T14:48:55;13.4;;;107.06666666666666;;
11917;SDS011;6019;51.768;5.870;2023-02-28T14:51:24;13.2;;;110.13333333333334;;
11917;SDS011;6019;51.768;5.870;2023-02-28T14:53:57;12.0;;;116.73333333333333;;
11917;SDS011;6019;51.768;5.870;2023-02-28T14:56:27;12.0;;;119.26666666666667;;
11917;SDS011;6019;51.768;5.870;2023-02-28T14:58:56;13.2;;;110.66666666666667;;
11917;SDS011;6019;51.768;5.870;2023-02-28T15:01:24;13.4;;;101.86666666666666;;
11917;SDS011;6019;51.768;5.870;2023-02-28T15:03:58;14.0;;;99.26666666666667;;
11917;SDS011;6019;51.768;5.870;2023-02-28T15:06:24;13.8;;;98.46666666666667;;
11917;SDS011;6019;51.768;5.870;2023-02-28T15:09:11;13.8;;;96.26666666666667;;
11917;SDS011;6019;51.768;5.870;2023-02-28T15:11:24;13.2;;;106.26666666666667;;
11917;SDS011;6019;51.768;5.870;2023-02-28T15:13:54;14.6;;;101.06666666666666;;
11917;SDS011;6019;51.768;5.870;2023-02-28T15:16:25;13.2;;;101.6;;
11917;SDS011;6019;51.768;5.870;2023-02-28T15:18:55;13.6;;;97.46666666666667;;
11917;SDS011;6019;51.768;5.870;2023-02-28T15:21:25;13.0;;;95.66666666666667;;
11917;SDS011;6019;51.768;5.870;2023-02-28T15:23:54;13.6;;;98.6;;
11917;SDS011;6019;51.768;5.870;2023-02-28T15:26:26;13.8;;;96.66666666666667;;
11917;SDS011;6019;51.768;5.870;2023-02-28T15:28:59;14.4;;;94.4;;
11917;SDS011;6019;51.768;5.870;2023-02-28T15:31:26;13.2;;;93.33333333333333;;
11917;SDS011;6019;51.768;5.870;2023-02-28T15:33:55;14.0;;;96.53333333333333;;
11917;SDS011;6019;51.768;5.870;2023-02-28T15:36:25;13.6;;;103.2;;
11917;SDS011;6019;51.768;5.870;2023-02-28T15:38:55;12.2;;;101.13333333333334;;
11917;SDS011;6019;51.768;5.870;2023-02-28T15:41:25;12.0;;;97.86666666666666;;
11917;SDS011;6019;51.768;5.870;2023-02-28T15:44:26;12.4;;;99.86666666666666;;
11917;SDS011;6019;51.768;5.870;2023-02-28T15:46:24;12.0;;;96.33333333333333;;
11917;SDS011;6019;51.768;5.870;2023-02-28T15:48:54;12.4;;;98.13333333333334;;
11917;SDS011;6019;51.768;5.870;2023-02-28T15:51:27;12.6;;;102.6;;
11917;SDS011;6019;51.768;5.870;2023-02-28T15:53:54;12.0;;;96.86666666666666;;
11917;SDS011;6019;51.768;5.870;2023-02-28T15:56:27;12.6;;;101.0;;
11917;SDS011;6019;51.768;5.870;2023-02-28T15:58:55;12.2;;;104.0;;
11917;SDS011;6019;51.768;5.870;2023-02-28T16:01:24;12.8;;;106.33333333333333;;
11917;SDS011;6019;51.768;5.870;2023-02-28T16:03:56;12.0;;;102.2;;
11917;SDS011;6019;51.768;5.870;2023-02-28T16:06:40;12.0;;;107.13333333333334;;
11917;SDS011;6019;51.768;5.870;2023-02-28T16:08:54;12.6;;;103.73333333333333;;
11917;SDS011;6019;51.768;5.870;2023-02-28T16:11:24;12.6;;;108.73333333333333;;
11917;SDS011;6019;51.768;5.870;2023-02-28T16:13:54;11.8;;;117.86666666666666;;
11917;SDS011;6019;51.768;5.870;2023-02-28T16:16:24;11.0;;;124.86666666666666;;
11917;SDS011;6019;51.768;5.870;2023-02-28T16:18:54;12.0;;;132.13333333333333;;
11917;SDS011;6019;51.768;5.870;2023-02-28T16:21:24;8.8;;;168.6;;
11917;SDS011;6019;51.768;5.870;2023-02-28T16:23:54;7.4;;;213.8;;
11917;SDS011;6019;51.768;5.870;2023-02-28T16:26:24;5.6;;;241.26666666666668;;
11917;SDS011;6019;51.768;5.870;2023-02-28T16:28:54;5.0;;;273.46666666666664;;
11917;SDS011;6019;51.768;5.870;2023-02-28T16:31:24;3.6;;;303.8;;
11917;SDS011;6019;51.768;5.870;2023-02-28T16:33:54;3.4;;;324.2;;
11917;SDS011;6019;51.768;5.870;2023-02-28T16:36:24;3.0;;;342.73333333333335;;
11917;SDS011;6019;51.768;5.870;2023-02-28T16:38:54;2.8;;;343.53333333333336;;
11917;SDS011;6019;51.768;5.870;2023-02-28T16:41:25;2.0;;;350.73333333333335;;
11917;SDS011;6019;51.768;5.870;2023-02-28T16:43:55;1.8;;;367.06666666666666;;
11917;SDS011;6019;51.768;5.870;2023-02-28T16:46:24;2.4;;;393.26666666666665;;
11917;SDS011;6019;51.768;5.870;2023-02-28T16:48:54;1.0;;;403.73333333333335;;
11917;SDS011;6019;51.768;5.870;2023-02-28T16:51:24;1.0;;;409.4;;
11917;SDS011;6019;51.768;5.870;2023-02-28T16:53:54;1.4;;;419.1333333333333;;
11917;SDS011;6019;51.768;5.870;2023-02-28T16:56:24;1.8;;;437.06666666666666;;
11917;SDS011;6019;51.768;5.870;2023-02-28T16:58:55;1.2;;;445.8;;
11917;SDS011;6019;51.768;5.870;2023-02-28T17:01:24;1.2;;;449.2;;
11917;SDS011;6019;51.768;5.870;2023-02-28T17:03:54;1.4;;;454.2;;
11917;SDS011;6019;51.768;5.870;2023-02-28T17:06:25;1.0;;;469.2;;
11917;SDS011;6019;51.768;5.870;2023-02-28T17:08:54;1.4;;;486.53333333333336;;
11917;SDS011;6019;51.768;5.870;2023-02-28T17:11:24;1.2;;;499.1333333333333;;
11917;SDS011;6019;51.768;5.870;2023-02-28T17:13:54;1.8;;;517.4666666666667;;
11917;SDS011;6019;51.768;5.870;2023-02-28T17:16:25;1.8;;;520.1333333333333;;
11917;SDS011;6019;51.768;5.870;2023-02-28T17:18:54;0.4;;;531.2;;
11917;SDS011;6019;51.768;5.870;2023-02-28T17:21:24;0.0;;;540.2666666666667;;
11917;SDS011;6019;51.768;5.870;2023-02-28T17:23:54;0.2;;;551.9333333333333;;
11917;SDS011;6019;51.768;5.870;2023-02-28T17:26:24;1.8;;;553.2;;
11917;SDS011;6019;51.768;5.870;2023-02-28T17:28:54;2.0;;;544.6666666666666;;
11917;SDS011;6019;51.768;5.870;2023-02-28T17:31:24;2.0;;;537.9333333333333;;
11917;SDS011;6019;51.768;5.870;2023-02-28T17:33:54;2.0;;;543.0666666666667;;
11917;SDS011;6019;51.768;5.870;2023-02-28T17:36:25;0.6;;;539.6666666666666;;
11917;SDS011;6019;51.768;5.870;2023-02-28T17:38:54;0.4;;;537.2;;
11917;SDS011;6019;51.768;5.870;2023-02-28T17:41:24;1.4;;;541.5333333333333;;
11917;SDS011;6019;51.768;5.870;2023-02-28T17:43:54;1.0;;;539.4;;
11917;SDS011;6019;51.768;5.870;2023-02-28T17:46:24;1.0;;;542.4666666666667;;
11917;SDS011;6019;51.768;5.870;2023-02-28T17:48:54;1.0;;;555.2;;
11917;SDS011;6019;51.768;5.870;2023-02-28T17:51:24;1.0;;;556.8;;
11917;SDS011;6019;51.768;5.870;2023-02-28T17:53:54;0.2;;;563.4;;
11917;SDS011;6019;51.768;5.870;2023-02-28T17:56:25;0.8;;;578.4;;
11917;SDS011;6019;51.768;5.870;2023-02-28T17:58:55;2.6;;;619.5333333333333;;
11917;SDS011;6019;51.768;5.870;2023-02-28T18:01:24;2.0;;;660.7333333333333;;
11917;SDS011;6019;51.768;5.870;2023-02-28T18:03:54;5.4;;;669.8;;
11917;SDS011;6019;51.768;5.870;2023-02-28T18:06:25;4.0;;;678.5333333333333;;
11917;SDS011;6019;51.768;5.870;2023-02-28T18:08:54;3.0;;;689.8;;
11917;SDS011;6019;51.768;5.870;2023-02-28T18:11:24;1.8;;;695.8;;
11917;SDS011;6019;51.768;5.870;2023-02-28T18:13:54;1.4;;;704.8;;
11917;SDS011;6019;51.768;5.870;2023-02-28T18:16:24;0.6;;;711.7333333333333;;
11917;SDS011;6019;51.768;5.870;2023-02-28T18:18:54;1.2;;;718.8;;
11917;SDS011;6019;51.768;5.870;2023-02-28T18:21:24;1.8;;;726.5333333333333;;
11917;SDS011;6019;51.768;5.870;2023-02-28T18:23:54;4.4;;;728.7333333333333;;
11917;SDS011;6019;51.768;5.870;2023-02-28T18:26:24;17.0;;;736.0666666666667;;
11917;SDS011;6019;51.768;5.870;2023-02-28T18:28:54;8.8;;;740.9333333333333;;
11917;SDS011;6019;51.768;5.870;2023-02-28T18:31:24;4.2;;;743.9333333333333;;
11917;SDS011;6019;51.768;5.870;2023-02-28T18:33:54;4.8;;;714.1333333333333;;
11917;SDS011;6019;51.768;5.870;2023-02-28T18:36:24;5.6;;;665.4666666666667;;
11917;SDS011;6019;51.768;5.870;2023-02-28T18:38:54;4.0;;;660.4;;
11917;SDS011;6019;51.768;5.870;2023-02-28T18:41:24;2.0;;;646.6;;
11917;SDS011;6019;51.768;5.870;2023-02-28T18:43:54;0.8;;;640.4;;
11917;SDS011;6019;51.768;5.870;2023-02-28T18:46:24;0.0;;;644.3333333333334;;
11917;SDS011;6019;51.768;5.870;2023-02-28T18:48:54;0.4;;;648.6;;
11917;SDS011;6019;51.768;5.870;2023-02-28T18:51:25;1.6;;;652.1333333333333;;
11917;SDS011;6019;51.768;5.870;2023-02-28T18:53:54;1.0;;;653.2666666666667;;
11917;SDS011;6019;51.768;5.870;2023-02-28T18:56:24;0.8;;;651.6;;
11917;SDS011;6019;51.768;5.870;2023-02-28T18:58:54;2.2;;;652.8;;
11917;SDS011;6019;51.768;5.870;2023-02-28T19:01:25;11.4;;;660.4666666666667;;
11917;SDS011;6019;51.768;5.870;2023-02-28T19:03:54;3.4;;;659.1333333333333;;
11917;SDS011;6019;51.768;5.870;2023-02-28T19:06:24;0.2;;;661.0;;
11917;SDS011;6019;51.768;5.870;2023-02-28T19:08:54;0.8;;;664.0666666666667;;
11917;SDS011;6019;51.768;5.870;2023-02-28T19:11:24;0.6;;;661.1333333333333;;
11917;SDS011;6019;51.768;5.870;2023-02-28T19:13:54;0.0;;;660.8666666666667;;
11917;SDS011;6019;51.768;5.870;2023-02-28T19:16:24;0.2;;;659.4;;
11917;SDS011;6019;51.768;5.870;2023-02-28T19:18:54;0.0;;;657.5333333333333;;
11917;SDS011;6019;51.768;5.870;2023-02-28T19:21:24;0.0;;;658.5333333333333;;
11917;SDS011;6019;51.768;5.870;2023-02-28T19:23:54;0.0;;;662.5333333333333;;
11917;SDS011;6019;51.768;5.870;2023-02-28T19:26:24;0.0;;;662.2666666666667;;
11917;SDS011;6019;51.768;5.870;2023-02-28T19:28:54;0.0;;;667.8666666666667;;
11917;SDS011;6019;51.768;5.870;2023-02-28T19:31:24;0.0;;;665.4666666666667;;
11917;SDS011;6019;51.768;5.870;2023-02-28T19:33:54;0.2;;;671.4;;
11917;SDS011;6019;51.768;5.870;2023-02-28T19:36:24;0.2;;;666.8666666666667;;
11917;SDS011;6019;51.768;5.870;2023-02-28T19:38:54;0.0;;;674.1333333333333;;
11917;SDS011;6019;51.768;5.870;2023-02-28T19:41:24;0.0;;;672.6;;
11917;SDS011;6019;51.768;5.870;2023-02-28T19:43:54;0.0;;;674.4666666666667;;
11917;SDS011;6019;51.768;5.870;2023-02-28T19:46:24;0.0;;;676.4666666666667;;
11917;SDS011;6019;51.768;5.870;2023-02-28T19:48:54;0.0;;;671.8666666666667;;
11917;SDS011;6019;51.768;5.870;2023-02-28T19:51:24;0.0;;;674.7333333333333;;
11917;SDS011;6019;51.768;5.870;2023-02-28T19:53:54;0.0;;;675.4666666666667;;
11917;SDS011;6019;51.768;5.870;2023-02-28T19:56:24;0.0;;;676.4666666666667;;
11917;SDS011;6019;51.768;5.870;2023-02-28T19:58:56;0.6;;;678.8;;
11917;SDS011;6019;51.768;5.870;2023-02-28T20:01:24;0.2;;;681.0666666666667;;
11917;SDS011;6019;51.768;5.870;2023-02-28T20:03:54;1.4;;;682.1333333333333;;
11917;SDS011;6019;51.768;5.870;2023-02-28T20:06:24;1.0;;;679.4666666666667;;
11917;SDS011;6019;51.768;5.870;2023-02-28T20:08:54;0.8;;;678.6666666666666;;
11917;SDS011;6019;51.768;5.870;2023-02-28T20:11:24;0.2;;;676.9333333333333;;
11917;SDS011;6019;51.768;5.870;2023-02-28T20:13:54;0.8;;;684.4666666666667;;
11917;SDS011;6019;51.768;5.870;2023-02-28T20:16:24;1.0;;;682.1333333333333;;
11917;SDS011;6019;51.768;5.870;2023-02-28T20:18:54;1.2;;;679.8666666666667;;
11917;SDS011;6019;51.768;5.870;2023-02-28T20:21:24;1.0;;;681.6;;
11917;SDS011;6019;51.768;5.870;2023-02-28T20:23:54;1.0;;;680.9333333333333;;
11917;SDS011;6019;51.768;5.870;2023-02-28T20:26:24;0.0;;;682.1333333333333;;
11917;SDS011;6019;51.768;5.870;2023-02-28T20:28:54;0.2;;;682.4;;
11917;SDS011;6019;51.768;5.870;2023-02-28T20:31:24;0.0;;;688.5333333333333;;
11917;SDS011;6019;51.768;5.870;2023-02-28T20:33:54;0.0;;;687.5333333333333;;
11917;SDS011;6019;51.768;5.870;2023-02-28T20:36:24;0.0;;;688.1333333333333;;
11917;SDS011;6019;51.768;5.870;2023-02-28T20:38:54;1.0;;;693.7333333333333;;
11917;SDS011;6019;51.768;5.870;2023-02-28T20:41:24;1.2;;;689.0;;
11917;SDS011;6019;51.768;5.870;2023-02-28T20:43:54;0.4;;;685.2666666666667;;
11917;SDS011;6019;51.768;5.870;2023-02-28T20:46:24;0.0;;;685.5333333333333;;
11917;SDS011;6019;51.768;5.870;2023-02-28T20:48:54;0.0;;;687.0;;
11917;SDS011;6019;51.768;5.870;2023-02-28T20:51:24;0.0;;;689.6;;
11917;SDS011;6019;51.768;5.870;2023-02-28T20:53:54;0.0;;;690.8666666666667;;
11917;SDS011;6019;51.768;5.870;2023-02-28T20:56:24;0.8;;;691.7333333333333;;
11917;SDS011;6019;51.768;5.870;2023-02-28T20:58:54;0.0;;;693.2;;
11917;SDS011;6019;51.768;5.870;2023-02-28T21:01:24;0.0;;;695.9333333333333;;
11917;SDS011;6019;51.768;5.870;2023-02-28T21:03:55;0.0;;;700.4666666666667;;
11917;SDS011;6019;51.768;5.870;2023-02-28T21:06:25;0.2;;;695.5333333333333;;
11917;SDS011;6019;51.768;5.870;2023-02-28T21:08:54;0.0;;;694.0666666666667;;
11917;SDS011;6019;51.768;5.870;2023-02-28T21:11:25;0.0;;;697.2;;
11917;SDS011;6019;51.768;5.870;2023-02-28T21:13:54;0.0;;;696.4;;
11917;SDS011;6019;51.768;5.870;2023-02-28T21:16:24;0.0;;;695.7333333333333;;
11917;SDS011;6019;51.768;5.870;2023-02-28T21:18:54;0.0;;;697.9333333333333;;
11917;SDS011;6019;51.768;5.870;2023-02-28T21:21:24;0.0;;;699.0;;
11917;SDS011;6019;51.768;5.870;2023-02-28T21:23:54;0.0;;;704.9333333333333;;
11917;SDS011;6019;51.768;5.870;2023-02-28T21:26:24;0.0;;;703.8666666666667;;
11917;SDS011;6019;51.768;5.870;2023-02-28T21:28:55;0.0;;;699.8666666666667;;
11917;SDS011;6019;51.768;5.870;2023-02-28T21:31:25;0.0;;;700.5333333333333;;
11917;SDS011;6019;51.768;5.870;2023-02-28T21:33:55;0.0;;;702.2;;
11917;SDS011;6019;51.768;5.870;2023-02-28T21:36:26;0.0;;;702.8666666666667;;
11917;SDS011;6019;51.768;5.870;2023-02-28T21:38:55;0.0;;;704.5333333333333;;
11917;SDS011;6019;51.768;5.870;2023-02-28T21:41:24;0.0;;;705.5333333333333;;
11917;SDS011;6019;51.768;5.870;2023-02-28T21:43:54;0.0;;;705.9333333333333;;